Brazil, Indiana
Current Conditions -  °F | °C
As of 4:53 PM on Sunday 21 Dec 2014 (Local Time) from KHUF Reporting Station
Clear Clear  
Wind Chill: 34°   Ceiling: Unl
Heat Index: 38°   Visibility: 10mi
Dew Point: 30°   Wind: 5mph
Humidity: 73%   Direction: 130°SE
Pressure: 30.13"   Gusts: NA
Location:  39.53°N, 87.12°W
Report Text: KHUF 212153Z 13004KT 10SM CLR 03/M01 A3013 RMK AO2 SLP208 T00331011
Loading
Personal Weather Stations






























Interactive Weather Map New forecast layout! Learn more

10-Day Weather Forecast

Advertisements
Track Severe Weather on mobile